Time;durP1;ratioP1;P1;durP2;ratioP2;P2;SDS_P1;SDS_P2;PMS_P1;PMS_P2;Temp;Humidity;BMP_temperature;BMP_pressure;BME280_temperature;BME280_humidity;BME280_pressure;Samples;Min_cycle;Max_cycle;Signal;HPM_P1;HPM_P2
2021/06/13 00:01:46;;;;;;;12.02;4.05;;;12.30;99.90;;;-145.59;100.00;63944.34;5077993;28;20458;-64
2021/06/13 00:04:12;;;;;;;9.05;4.43;;;12.20;99.90;;;-145.59;100.00;63944.34;5078081;28;20538;-64
2021/06/13 00:06:38;;;;;;;11.45;4.22;;;12.20;99.90;;;-145.59;100.00;63944.34;5077851;28;20066;-63
2021/06/13 00:09:05;;;;;;;14.88;4.78;;;12.30;99.90;;;-145.59;100.00;63944.34;5077853;28;20119;-64
2021/06/13 00:11:32;;;;;;;19.08;6.20;;;12.30;99.90;;;-145.59;100.00;63944.34;5077841;28;20055;-64
2021/06/13 00:13:57;;;;;;;13.95;4.63;;;12.20;99.90;;;-145.59;100.00;63944.34;5094757;28;20036;-65
2021/06/13 00:16:24;;;;;;;9.77;4.90;;;12.20;99.90;;;-145.59;100.00;63944.34;5114835;28;20039;-64
2021/06/13 00:18:50;;;;;;;12.52;4.45;;;12.20;99.90;;;-145.59;100.00;63944.34;5098348;28;20023;-72
2021/06/13 00:21:16;;;;;;;9.85;3.95;;;12.20;99.90;;;-145.59;100.00;63944.34;5098170;28;20402;-73
2021/06/13 00:23:43;;;;;;;8.82;4.55;;;12.20;99.90;;;-145.59;100.00;63944.34;5116385;28;20489;-71
2021/06/13 00:26:10;;;;;;;11.77;4.68;;;12.20;99.90;;;-145.59;100.00;63944.34;5098561;28;20036;-72
2021/06/13 00:28:37;;;;;;;12.73;5.15;;;12.10;99.90;;;-145.59;100.00;63944.34;5081429;28;20114;-72
2021/06/13 00:31:05;;;;;;;11.32;3.90;;;12.20;99.90;;;-145.59;100.00;63944.34;5116322;28;20028;-71
2021/06/13 00:33:32;;;;;;;9.35;4.03;;;12.20;99.90;;;-145.59;100.00;63944.34;5098020;28;20424;-72
2021/06/13 00:35:58;;;;;;;14.50;5.82;;;12.20;99.90;;;-145.59;100.00;63944.34;5097866;28;20072;-72
2021/06/13 00:38:24;;;;;;;11.40;5.78;;;12.20;99.90;;;-145.59;100.00;63944.34;5081146;28;20036;-71
2021/06/13 00:40:50;;;;;;;16.10;4.93;;;12.20;99.90;;;-145.59;100.00;63944.34;5064356;28;20032;-73
2021/06/13 00:43:16;;;;;;;15.65;5.22;;;12.20;99.90;;;-145.59;100.00;63944.34;5097691;28;20032;-71
2021/06/13 00:45:42;;;;;;;10.93;4.00;;;12.10;99.90;;;-145.59;100.00;63944.34;5097800;28;20040;-74
2021/06/13 00:48:08;;;;;;;12.27;4.85;;;12.00;99.90;;;-145.59;100.00;63944.34;5097846;28;20034;-70
2021/06/13 00:50:48;;;;;;;10.68;4.32;;;12.10;99.90;;;-145.59;100.00;63944.34;5097766;28;20040;-74
2021/06/13 00:53:15;;;;;;;18.23;4.05;;;12.00;99.90;;;-145.59;100.00;63944.34;5098280;28;20489;-73
2021/06/13 00:55:41;;;;;;;9.57;4.43;;;12.10;99.90;;;-145.59;100.00;63944.34;5080817;28;20073;-73
2021/06/13 00:58:07;;;;;;;11.50;5.05;;;12.10;99.90;;;-145.59;100.00;63944.34;5080949;28;20435;-73
2021/06/13 01:00:36;;;;;;;21.75;5.45;;;12.00;99.90;;;-145.59;100.00;63944.34;5080597;28;20035;-72
2021/06/13 01:03:03;;;;;;;9.40;3.83;;;12.00;99.90;;;-145.59;100.00;63944.34;5080422;28;20028;-74
2021/06/13 01:05:29;;;;;;;13.63;5.13;;;12.00;99.90;;;-145.59;100.00;63944.34;5097368;28;20054;-65
2021/06/13 01:08:27;;;;;;;16.13;4.95;;;12.00;99.90;;;-145.59;100.00;63944.34;5097318;28;20138;-65
2021/06/13 01:11:37;;;;;;;8.93;4.05;;;12.00;99.90;;;-145.59;100.00;63944.34;5082239;28;20362;-64
2021/06/13 01:14:25;;;;;;;9.90;4.00;;;12.00;99.90;;;-145.59;100.00;63944.34;5115302;28;20027;-64
2021/06/13 01:17:16;;;;;;;7.63;4.53;;;12.00;99.90;;;-145.59;100.00;63944.34;5098501;28;20111;-64
2021/06/13 01:20:20;;;;;;;9.20;4.43;;;12.00;99.90;;;-145.59;100.00;63944.34;5115354;28;20494;-65
2021/06/13 01:23:39;;;;;;;8.95;3.72;;;11.90;99.90;;;-145.59;100.00;63944.34;4996580;28;20061;-64
2021/06/13 01:26:51;;;;;;;11.00;5.00;;;11.90;99.90;;;-145.59;100.00;63944.34;5093684;28;20081;-66
2021/06/13 01:29:31;;;;;;;12.25;4.60;;;11.90;99.90;;;-145.59;100.00;63944.34;5096859;28;20031;-65
2021/06/13 01:32:08;;;;;;;10.60;4.60;;;11.90;99.90;;;-145.59;100.00;63944.34;5097595;28;20034;-67
2021/06/13 01:34:43;;;;;;;6.43;3.70;;;11.90;99.90;;;-145.59;100.00;63944.34;5080588;28;20401;-66
2021/06/13 01:37:17;;;;;;;13.32;4.90;;;11.90;99.90;;;-145.59;100.00;63944.34;5097490;28;20541;-66
2021/06/13 01:39:46;;;;;;;11.02;4.22;;;11.80;99.90;;;-145.59;100.00;63944.34;5096916;28;20039;-65
2021/06/13 01:42:15;;;;;;;15.38;4.47;;;11.90;99.90;;;-145.59;100.00;63944.34;5080242;28;20040;-64
2021/06/13 01:44:44;;;;;;;12.90;4.45;;;11.80;99.90;;;-145.59;100.00;63944.34;5079844;28;20487;-64
2021/06/13 01:47:10;;;;;;;23.77;5.15;;;11.80;99.90;;;-145.59;100.00;63944.34;5080180;28;20039;-63
2021/06/13 01:49:41;;;;;;;8.85;4.85;;;11.80;99.90;;;-145.59;100.00;63944.34;5079457;28;20024;-63
2021/06/13 01:52:10;;;;;;;10.23;4.18;;;11.80;99.90;;;-145.59;100.00;63944.34;5096075;28;20528;-65
2021/06/13 01:54:36;;;;;;;8.82;3.75;;;11.80;99.90;;;-145.59;100.00;63944.34;5096595;28;20019;-65
2021/06/13 01:57:04;;;;;;;8.93;4.63;;;11.80;99.90;;;-145.59;100.00;63944.34;5096368;28;20504;-66
2021/06/13 01:59:32;;;;;;;10.20;4.53;;;11.80;99.90;;;-145.59;100.00;63944.34;5079843;28;20032;-64
2021/06/13 02:01:59;;;;;;;11.27;3.88;;;11.80;99.90;;;-145.59;100.00;63944.34;5079845;28;20070;-63
2021/06/13 02:04:29;;;;;;;7.70;4.10;;;11.70;99.90;;;-145.59;100.00;63944.34;5096481;28;20393;-65
2021/06/13 02:06:58;;;;;;;13.30;4.40;;;11.70;99.90;;;-145.59;100.00;63944.34;5096494;28;20038;-64
2021/06/13 02:09:26;;;;;;;14.18;4.68;;;11.70;99.90;;;-145.59;100.00;63944.34;5096376;28;20027;-64
2021/06/13 02:11:56;;;;;;;9.95;4.72;;;11.70;99.90;;;-145.59;100.00;63944.34;5096058;28;20032;-64
2021/06/13 02:14:24;;;;;;;12.18;4.50;;;11.70;99.90;;;-145.59;100.00;63944.34;5096343;28;20059;-64
2021/06/13 02:16:52;;;;;;;11.07;4.53;;;11.60;99.90;;;-145.59;100.00;63944.34;5096082;28;20028;-63
2021/06/13 02:19:22;;;;;;;13.10;4.43;;;11.70;99.90;;;-145.59;100.00;63944.34;5096050;28;20156;-64
2021/06/13 02:21:55;;;;;;;13.35;5.60;;;11.60;99.90;;;-145.59;100.00;63944.34;5096184;28;20034;-64
2021/06/13 02:24:23;;;;;;;11.95;4.35;;;11.60;99.90;;;-145.59;100.00;63944.34;5096807;28;20031;-64
2021/06/13 02:26:50;;;;;;;12.65;3.90;;;11.60;99.90;;;-145.59;100.00;63944.34;5078872;28;20088;-63
2021/06/13 02:29:18;;;;;;;9.85;4.25;;;11.60;99.90;;;-145.59;100.00;63944.34;5079205;28;20035;-65
2021/06/13 02:31:46;;;;;;;12.23;4.68;;;11.60;99.90;;;-145.59;100.00;63944.34;5095844;28;20508;-64
2021/06/13 02:34:19;;;;;;;13.13;3.90;;;11.60;99.90;;;-145.59;100.00;63944.34;5078917;28;20501;-64
2021/06/13 02:36:50;;;;;;;10.85;3.88;;;11.60;99.90;;;-145.59;100.00;63944.34;5096133;28;20042;-64
2021/06/13 02:39:17;;;;;;;12.98;4.40;;;11.60;99.90;;;-145.59;100.00;63944.34;5095119;28;20035;-63
2021/06/13 02:41:43;;;;;;;12.13;4.38;;;11.60;99.90;;;-145.59;100.00;63944.34;5079518;28;20036;-65
2021/06/13 02:44:10;;;;;;;11.65;4.75;;;11.60;99.90;;;-145.59;100.00;63944.34;5095846;28;20065;-65
2021/06/13 02:46:36;;;;;;;12.75;3.95;;;11.60;99.90;;;-145.59;100.00;63944.34;5078916;28;20394;-66
2021/06/13 02:49:07;;;;;;;9.32;3.92;;;11.60;99.90;;;-145.59;100.00;63944.34;5078708;28;20114;-64
2021/06/13 02:51:59;;;;;;;7.57;3.63;;;11.60;99.90;;;-145.59;100.00;63944.34;5077845;28;20059;-63
2021/06/13 02:54:26;;;;;;;13.45;4.07;;;11.60;99.90;;;-145.59;100.00;63944.34;5080945;28;20036;-63
2021/06/13 02:56:59;;;;;;;13.02;4.07;;;11.50;99.90;;;-145.59;100.00;63944.34;5095879;28;20047;-70
2021/06/13 02:59:48;;;;;;;8.73;3.65;;;11.50;99.90;;;-145.59;100.00;63944.34;5095763;28;20039;-71
2021/06/13 03:02:23;;;;;;;9.02;3.63;;;11.50;99.90;;;-145.59;100.00;63944.34;5096408;28;20024;-71
2021/06/13 03:04:50;;;;;;;17.73;5.00;;;11.50;99.90;;;-145.59;100.00;63944.34;5096025;28;20562;-70
2021/06/13 03:07:21;;;;;;;13.95;4.68;;;11.50;99.90;;;-145.59;100.00;63944.34;5095493;28;20044;-68
2021/06/13 03:09:50;;;;;;;7.85;4.00;;;11.50;99.90;;;-145.59;100.00;63944.34;5095461;28;20036;-69
2021/06/13 03:12:18;;;;;;;10.32;4.35;;;11.50;99.90;;;-145.59;100.00;63944.34;5095447;28;20036;-71
2021/06/13 03:14:46;;;;;;;10.10;3.90;;;11.50;99.90;;;-145.59;100.00;63944.34;5095637;28;20073;-70
2021/06/13 03:17:13;;;;;;;15.38;4.22;;;11.50;99.90;;;-145.59;100.00;63944.34;5095625;28;20579;-68
2021/06/13 03:19:41;;;;;;;7.88;3.47;;;11.50;99.90;;;-145.59;100.00;63944.34;5095122;28;20389;-70
2021/06/13 03:22:08;;;;;;;13.27;4.32;;;11.50;99.90;;;-145.59;100.00;63944.34;5095384;28;20020;-67
2021/06/13 03:24:38;;;;;;;17.17;4.72;;;11.40;99.90;;;-145.59;100.00;63944.34;5078560;28;20093;-66
2021/06/13 03:27:07;;;;;;;15.38;4.70;;;11.50;99.90;;;-145.59;100.00;63944.34;5095761;28;20032;-68
2021/06/13 03:29:37;;;;;;;9.18;3.78;;;11.50;99.90;;;-145.59;100.00;63944.34;5095352;28;20032;-65
2021/06/13 03:32:05;;;;;;;12.15;4.35;;;11.50;99.90;;;-145.59;100.00;63944.34;5095486;28;20028;-69
2021/06/13 03:34:31;;;;;;;10.55;4.32;;;11.50;99.90;;;-145.59;100.00;63944.34;5095408;28;20043;-66
2021/06/13 03:36:59;;;;;;;13.52;4.30;;;11.50;99.90;;;-145.59;100.00;63944.34;5061702;28;20038;-66
2021/06/13 03:39:25;;;;;;;19.55;4.40;;;11.50;99.90;;;-145.59;100.00;63944.34;5078172;28;20130;-68
2021/06/13 03:41:52;;;;;;;10.05;4.15;;;11.60;99.90;;;-145.59;100.00;63944.34;5095469;28;20410;-67
2021/06/13 03:44:20;;;;;;;9.90;3.83;;;11.60;99.90;;;-145.59;100.00;63944.34;5078169;28;20028;-68
2021/06/13 03:46:47;;;;;;;15.25;4.45;;;11.70;99.90;;;-145.59;100.00;63944.34;5078420;28;20047;-69
2021/06/13 03:49:16;;;;;;;10.75;4.90;;;11.70;99.90;;;-145.59;100.00;63944.34;5095120;28;20024;-68
2021/06/13 03:51:43;;;;;;;7.55;3.60;;;11.70;99.90;;;-145.59;100.00;63944.34;5082660;28;20048;-69
2021/06/13 03:54:12;;;;;;;11.05;4.07;;;11.80;99.90;;;-145.59;100.00;63944.34;5098919;28;20104;-68
2021/06/13 03:56:44;;;;;;;7.82;3.72;;;11.80;99.90;;;-145.59;100.00;63944.34;5098823;28;20482;-69
2021/06/13 03:59:11;;;;;;;9.50;3.70;;;11.80;99.90;;;-145.59;100.00;63944.34;5099480;28;20024;-73
2021/06/13 04:01:41;;;;;;;10.32;3.88;;;12.10;99.90;;;-145.59;100.00;63944.34;5098720;28;20040;-71
2021/06/13 04:04:09;;;;;;;9.63;4.10;;;12.00;99.90;;;-145.59;100.00;63944.34;5065060;28;20042;-66
2021/06/13 04:06:36;;;;;;;7.38;3.70;;;12.20;99.90;;;-145.59;100.00;63944.34;5098748;28;20110;-66
2021/06/13 04:09:03;;;;;;;7.55;3.22;;;12.30;99.90;;;-145.59;100.00;63944.34;5081945;28;20031;-66
2021/06/13 04:11:33;;;;;;;12.52;4.57;;;12.40;99.90;;;-145.59;100.00;63944.34;5098269;28;20032;-68
2021/06/13 04:14:01;;;;;;;6.18;3.60;;;12.50;99.90;;;-145.59;100.00;63944.34;5081921;28;20044;-68
2021/06/13 04:16:27;;;;;;;10.05;3.80;;;12.50;99.90;;;-145.59;100.00;63944.34;5082945;28;20038;-71
2021/06/13 04:18:53;;;;;;;8.57;3.20;;;12.60;99.90;;;-145.59;100.00;63944.34;5098558;28;20040;-72
2021/06/13 04:21:20;;;;;;;12.07;3.72;;;12.80;99.90;;;-145.59;100.00;63944.34;5081667;28;20053;-71
2021/06/13 04:23:47;;;;;;;9.43;3.42;;;12.90;99.90;;;-145.59;100.00;63944.34;5081451;28;20035;-72
2021/06/13 04:26:16;;;;;;;10.68;3.45;;;13.40;99.90;;;-145.59;100.00;63944.34;5116607;28;20541;-71
2021/06/13 04:28:43;;;;;;;7.25;3.30;;;14.20;99.90;;;-145.59;100.00;63944.34;5098604;28;20027;-73
2021/06/13 04:31:16;;;;;;;9.00;3.15;;;15.40;99.90;;;-145.59;100.00;63944.34;5081395;28;20148;-72
2021/06/13 04:33:48;;;;;;;7.68;3.55;;;16.80;99.90;;;-145.59;100.00;63944.34;5098329;28;20035;-71
2021/06/13 04:36:16;;;;;;;5.90;2.55;;;18.10;99.90;;;-145.59;100.00;63944.34;5081770;28;20028;-70
2021/06/13 04:38:43;;;;;;;6.70;2.85;;;19.50;99.90;;;-145.59;100.00;63944.34;5116585;28;20050;-69
2021/06/13 04:41:10;;;;;;;7.55;2.55;;;20.70;99.90;;;-145.59;100.00;63944.34;5098105;28;20477;-68
2021/06/13 04:43:38;;;;;;;8.73;3.15;;;21.70;99.00;;;-145.59;100.00;63944.34;5097922;28;20062;-69
2021/06/13 04:46:05;;;;;;;8.45;2.72;;;22.70;97.70;;;-145.59;100.00;63944.34;5116063;28;20035;-68
2021/06/13 04:48:31;;;;;;;8.93;3.08;;;23.60;95.80;;;-145.59;100.00;63944.34;5098262;28;20115;-68
2021/06/13 04:51:04;;;;;;;7.95;3.28;;;24.70;94.10;;;-145.59;100.00;63944.34;5081733;28;20066;-65
2021/06/13 04:53:51;;;;;;;10.93;3.25;;;25.70;91.90;;;-145.59;100.00;63944.34;5115666;28;20043;-67
2021/06/13 04:56:44;;;;;;;5.75;3.13;;;26.70;90.10;;;-145.59;100.00;63944.34;5097505;28;20043;-66
2021/06/13 04:59:10;;;;;;;5.53;2.90;;;27.10;85.30;;;-145.59;100.00;63944.34;5097552;28;20084;-67
2021/06/13 05:01:41;;;;;;;8.32;2.70;;;26.90;85.50;;;-145.59;100.00;63944.34;5096630;28;20110;-67
2021/06/13 05:04:07;;;;;;;7.25;3.70;;;27.20;84.60;;;-145.59;100.00;63944.34;5080986;28;20188;-67
2021/06/13 05:06:33;;;;;;;6.90;3.10;;;27.70;83.90;;;-145.59;100.00;63944.34;5097394;28;20039;-68
2021/06/13 05:09:00;;;;;;;5.80;2.97;;;28.50;81.50;;;-145.59;100.00;63944.34;5063773;28;20043;-66
2021/06/13 05:11:25;;;;;;;9.07;3.15;;;29.20;78.90;;;-145.59;100.00;63944.34;5097169;28;20508;-64
2021/06/13 05:13:52;;;;;;;7.43;2.72;;;29.90;76.90;;;-145.59;100.00;63944.34;5097230;28;20028;-68
2021/06/13 05:16:18;;;;;;;6.05;3.67;;;30.40;74.30;;;-145.59;100.00;63944.34;5080369;28;20036;-68
2021/06/13 05:18:44;;;;;;;5.18;2.60;;;30.90;72.90;;;-145.59;100.00;63944.34;5080148;28;20044;-68
2021/06/13 05:21:10;;;;;;;7.05;3.10;;;31.50;72.00;;;-145.59;100.00;63944.34;5063801;28;20138;-67
2021/06/13 05:23:36;;;;;;;7.35;3.83;;;31.90;70.60;;;-145.59;100.00;63944.34;5080071;28;20423;-68
2021/06/13 05:26:03;;;;;;;8.32;3.03;;;32.20;69.60;;;-145.59;100.00;63944.34;5080180;28;20032;-68
2021/06/13 05:28:30;;;;;;;6.70;2.67;;;32.50;67.90;;;-145.59;100.00;63944.34;5063389;28;20046;-66
2021/06/13 05:30:56;;;;;;;7.20;2.72;;;32.60;66.60;;;-145.59;100.00;63944.34;5096687;28;20024;-68
2021/06/13 05:33:23;;;;;;;5.68;2.78;;;32.40;66.60;;;-145.59;100.00;63944.34;5063279;28;20035;-67
2021/06/13 05:35:50;;;;;;;7.53;3.22;;;32.60;65.80;;;-145.59;100.00;63944.34;5063179;28;20122;-67
2021/06/13 05:38:17;;;;;;;6.78;3.33;;;33.00;65.00;;;-145.59;100.00;63944.34;5079866;28;20433;-67
2021/06/13 05:40:43;;;;;;;8.82;3.33;;;33.50;65.10;;;-145.59;100.00;63944.34;5114877;28;20027;-66
2021/06/13 05:43:11;;;;;;;9.38;2.90;;;34.00;63.50;;;-145.59;100.00;63944.34;5079667;28;20047;-67
2021/06/13 05:45:39;;;;;;;6.68;3.00;;;34.10;62.60;;;-145.59;100.00;63944.34;5096804;28;20032;-67
2021/06/13 05:48:06;;;;;;;6.00;2.90;;;34.50;61.90;;;-145.59;100.00;63944.34;5096861;28;20065;-67
2021/06/13 05:50:33;;;;;;;5.47;2.33;;;35.00;60.60;;;-145.59;100.00;63944.34;5096406;28;20035;-68
2021/06/13 05:53:01;;;;;;;6.43;2.50;;;35.30;59.40;;;-145.59;100.00;63944.34;5063034;28;20048;-68
2021/06/13 05:55:28;;;;;;;4.97;2.28;;;35.60;58.80;;;-145.59;100.00;63944.34;5096787;28;20431;-67
2021/06/13 05:57:55;;;;;;;6.82;2.78;;;35.70;58.80;;;-145.59;100.00;63944.34;5096826;28;20024;-67
2021/06/13 06:00:24;;;;;;;6.05;2.30;;;35.70;57.80;;;-145.59;100.00;63944.34;5079924;28;20390;-68
2021/06/13 06:02:50;;;;;;;7.10;2.70;;;35.90;57.00;;;-145.59;100.00;63944.34;5096935;28;20425;-68
2021/06/13 06:05:19;;;;;;;4.25;2.38;;;35.90;56.80;;;-145.59;100.00;63944.34;5114794;28;20043;-67
2021/06/13 06:07:45;;;;;;;5.95;2.03;;;35.80;56.40;;;-145.59;100.00;63944.34;5096490;28;20031;-68
2021/06/13 06:10:14;;;;;;;6.60;2.63;;;35.70;56.20;;;-145.59;100.00;63944.34;5096387;28;20362;-68
2021/06/13 06:12:40;;;;;;;6.82;2.35;;;35.70;56.10;;;-145.59;100.00;63944.34;5079654;28;20043;-68
2021/06/13 06:15:08;;;;;;;6.50;2.35;;;35.80;56.00;;;-145.59;100.00;63944.34;5096148;28;20028;-70
2021/06/13 06:17:35;;;;;;;6.68;2.83;;;36.10;55.50;;;-145.59;100.00;63944.34;5097350;28;20485;-73
2021/06/13 06:20:01;;;;;;;11.52;2.97;;;36.40;55.50;;;-145.59;100.00;63944.34;5097102;28;20062;-77
2021/06/13 06:22:27;;;;;;;6.13;2.15;;;37.20;55.00;;;-145.59;100.00;63944.34;5096975;28;20477;-70
2021/06/13 06:24:53;;;;;;;4.32;2.30;;;37.80;53.70;;;-145.59;100.00;63944.34;5115237;28;20034;-77
2021/06/13 06:27:19;;;;;;;6.78;2.97;;;38.10;53.40;;;-145.59;100.00;63944.34;5079726;28;20126;-75
2021/06/13 06:29:45;;;;;;;7.13;2.50;;;38.60;53.10;;;-145.59;100.00;63944.34;5096662;28;20463;-73
2021/06/13 06:32:11;;;;;;;5.63;2.88;;;38.90;52.20;;;-145.59;100.00;63944.34;5080269;28;20040;-76
2021/06/13 06:34:37;;;;;;;4.82;2.33;;;39.10;51.90;;;-145.59;100.00;63944.34;5079956;28;20031;-75
2021/06/13 06:37:04;;;;;;;8.07;2.75;;;39.50;51.50;;;-145.59;100.00;63944.34;5096509;28;20118;-74
2021/06/13 06:39:30;;;;;;;9.55;2.92;;;40.10;50.70;;;-145.59;100.00;63944.34;5096804;28;20039;-75
2021/06/13 06:41:56;;;;;;;8.95;2.58;;;40.50;49.80;;;-145.59;100.00;63944.34;5096673;28;20036;-72
2021/06/13 06:44:23;;;;;;;6.03;2.53;;;40.30;49.30;;;-145.59;100.00;63944.34;5063033;28;20054;-74
2021/06/13 06:46:49;;;;;;;6.78;2.47;;;39.70;49.40;;;-145.59;100.00;63944.34;5114924;28;20050;-73
2021/06/13 06:49:15;;;;;;;5.55;3.00;;;39.40;49.10;;;-145.59;100.00;63944.34;5098057;28;20585;-71
2021/06/13 06:51:41;;;;;;;5.85;2.63;;;39.40;49.00;;;-145.59;100.00;63944.34;5098961;28;20486;-76
2021/06/13 06:54:07;;;;;;;7.47;2.45;;;39.60;49.00;;;-145.59;100.00;63944.34;5081296;28;20388;-72
2021/06/13 06:56:33;;;;;;;5.70;2.67;;;40.10;48.60;;;-145.59;100.00;63944.34;5081867;28;20096;-76
2021/06/13 06:58:59;;;;;;;7.15;2.90;;;40.80;47.90;;;-145.59;100.00;63944.34;5098910;28;20023;-78
2021/06/13 07:01:26;;;;;;;5.88;2.20;;;41.00;47.20;;;-145.59;100.00;63944.34;5081603;28;20523;-73
2021/06/13 07:03:52;;;;;;;6.30;2.22;;;41.40;46.20;;;-145.59;100.00;63944.34;5097418;28;20036;-73
2021/06/13 07:06:18;;;;;;;5.88;2.58;;;41.60;45.80;;;-145.59;100.00;63944.34;5096583;28;20038;-76
2021/06/13 07:08:44;;;;;;;6.55;2.33;;;41.80;45.30;;;-145.59;100.00;63944.34;5097191;28;20035;-76
2021/06/13 07:11:10;;;;;;;5.25;2.17;;;41.80;44.80;;;-145.59;100.00;63944.34;5115028;28;20042;-75
2021/06/13 07:13:37;;;;;;;5.25;2.30;;;41.70;44.60;;;-145.59;100.00;63944.34;5115431;28;20043;-76
2021/06/13 07:16:03;;;;;;;6.95;2.45;;;41.90;44.40;;;-145.59;100.00;63944.34;5098262;28;20389;-75
2021/06/13 07:18:38;;;;;;;6.35;1.88;;;42.20;44.60;;;-145.59;100.00;63944.34;5081418;28;20043;-78
2021/06/13 07:21:05;;;;;;;5.25;1.88;;;42.60;44.60;;;-145.59;100.00;63944.34;5115965;28;20028;-76
2021/06/13 07:23:31;;;;;;;4.95;2.00;;;42.70;43.90;;;-145.59;100.00;63944.34;5116408;28;20063;-75
2021/06/13 07:25:57;;;;;;;5.32;2.40;;;43.00;44.00;;;-145.59;100.00;63944.34;5120090;28;20051;-75
2021/06/13 07:28:23;;;;;;;4.55;2.53;;;43.30;43.50;;;-145.59;100.00;63944.34;5087125;28;20122;-78
2021/06/13 07:30:49;;;;;;;8.45;2.13;;;43.40;43.10;;;-145.59;100.00;63944.34;5070403;28;20028;-75
2021/06/13 07:33:15;;;;;;;5.80;2.15;;;43.60;43.00;;;-145.59;100.00;63944.34;5104573;28;20397;-76
2021/06/13 07:35:41;;;;;;;5.75;2.03;;;44.10;42.50;;;-145.59;100.00;63944.34;5072155;28;20100;-72
2021/06/13 07:38:07;;;;;;;3.65;1.63;;;43.90;41.70;;;-145.59;100.00;63944.34;5072183;28;20036;-73
2021/06/13 07:40:33;;;;;;;4.28;1.90;;;43.80;41.70;;;-145.59;100.00;63944.34;5123437;28;20024;-76
2021/06/13 07:43:00;;;;;;;5.63;2.15;;;43.60;41.70;;;-145.59;100.00;63944.34;5104007;28;20039;-74
2021/06/13 07:45:27;;;;;;;5.95;2.28;;;43.50;40.90;;;-145.59;100.00;63944.34;5104202;28;20036;-73
2021/06/13 07:47:53;;;;;;;3.78;1.90;;;43.30;41.30;;;-145.59;100.00;63944.34;5105990;28;20038;-75
2021/06/13 07:50:21;;;;;;;2.97;1.40;;;43.50;41.00;;;-145.59;100.00;63944.34;5109138;28;20024;-72
2021/06/13 07:52:49;;;;;;;3.95;1.50;;;44.10;39.80;;;-145.59;100.00;63944.34;5127309;28;20080;-77
2021/06/13 07:55:17;;;;;;;2.25;1.33;;;44.40;39.00;;;-145.59;100.00;63944.34;5087246;28;20032;-76
2021/06/13 07:57:43;;;;;;;4.93;2.33;;;44.70;39.20;;;-145.59;100.00;63944.34;5123834;28;20035;-75
2021/06/13 08:00:13;;;;;;;3.90;1.95;;;44.80;38.50;;;-145.59;100.00;63944.34;5124243;28;20503;-74
2021/06/13 08:02:41;;;;;;;2.78;1.35;;;44.90;38.50;;;-145.59;100.00;63944.34;5088123;28;20542;-75
2021/06/13 08:05:13;;;;;;;3.88;1.75;;;45.00;38.40;;;-145.59;100.00;63944.34;5104082;28;20031;-75
2021/06/13 08:07:39;;;;;;;;;;;45.40;38.30;;;-145.59;100.00;63944.34;5085771;28;20473;-75
2021/06/13 08:10:07;;;;;;;3.20;1.60;;;45.80;37.80;;;-145.59;100.00;63944.34;5083579;28;19916;-75
2021/06/13 08:12:33;;;;;;;5.53;2.17;;;46.20;37.30;;;-145.59;100.00;63944.34;5121080;28;20043;-79
2021/06/13 08:15:00;;;;;;;4.07;1.90;;;45.90;37.20;;;-145.59;100.00;63944.34;5103716;28;20042;-77
2021/06/13 08:17:26;;;;;;;4.05;1.98;;;45.60;37.50;;;-145.59;100.00;63944.34;5088282;28;20057;-77
2021/06/13 08:19:53;;;;;;;3.60;1.60;;;45.30;37.10;;;-145.59;100.00;63944.34;5102374;28;20059;-71
2021/06/13 08:22:18;;;;;;;4.20;1.52;;;45.40;37.10;;;-145.59;100.00;63944.34;5101440;28;20111;-76
2021/06/13 08:24:44;;;;;;;5.88;2.10;;;45.70;37.00;;;-145.59;100.00;63944.34;5118423;28;20460;-77
2021/06/13 08:27:10;;;;;;;3.65;1.67;;;45.90;36.80;;;-145.59;100.00;63944.34;5084397;28;20040;-78
2021/06/13 08:29:36;;;;;;;3.67;1.65;;;46.30;36.60;;;-145.59;100.00;63944.34;5100258;28;20032;-80
2021/06/13 08:32:03;;;;;;;2.85;1.58;;;46.60;36.20;;;-145.59;100.00;63944.34;5083559;28;20043;-74
2021/06/13 08:34:28;;;;;;;2.97;1.80;;;46.70;36.00;;;-145.59;100.00;63944.34;5068088;28;20068;-75
2021/06/13 08:36:54;;;;;;;4.05;1.48;;;46.90;35.70;;;-145.59;100.00;63944.34;5065175;28;20398;-73
2021/06/13 08:39:20;;;;;;;2.00;1.23;;;46.90;35.90;;;-145.59;100.00;63944.34;5065115;28;20416;-71
2021/06/13 08:41:46;;;;;;;3.55;1.55;;;46.90;35.70;;;-145.59;100.00;63944.34;5098120;28;20036;-72
2021/06/13 08:44:12;;;;;;;2.92;1.83;;;47.10;35.50;;;-145.59;100.00;63944.34;5081299;28;20060;-72
2021/06/13 08:46:39;;;;;;;3.58;1.52;;;47.40;35.60;;;-145.59;100.00;63944.34;5098109;28;20401;-72
2021/06/13 08:49:06;;;;;;;2.88;2.15;;;47.60;35.20;;;-145.59;100.00;63944.34;5081265;28;20061;-69
2021/06/13 08:51:33;;;;;;;3.03;1.35;;;47.60;35.10;;;-145.59;100.00;63944.34;5097932;28;20031;-73
2021/06/13 08:54:00;;;;;;;3.03;1.52;;;46.90;34.80;;;-145.59;100.00;63944.34;5098198;28;20534;-73
2021/06/13 08:56:26;;;;;;;3.15;1.65;;;46.60;35.10;;;-145.59;100.00;63944.34;5081156;28;20084;-72
2021/06/13 08:58:53;;;;;;;3.83;1.75;;;46.40;35.10;;;-145.59;100.00;63944.34;5098443;28;20024;-72
2021/06/13 09:01:19;;;;;;;1.42;1.30;;;46.30;35.40;;;-145.59;100.00;63944.34;5116294;28;20047;-70
2021/06/13 09:03:45;;;;;;;2.95;1.60;;;46.50;34.60;;;-145.59;100.00;63944.34;5097866;28;20035;-75
2021/06/13 09:06:14;;;;;;;3.13;1.50;;;46.10;34.40;;;-145.59;100.00;63944.34;5098099;28;20130;-73
2021/06/13 09:08:42;;;;;;;3.10;1.67;;;45.60;34.40;;;-145.59;100.00;63944.34;5080526;28;20096;-74
2021/06/13 09:11:30;;;;;;;4.65;1.75;;;45.20;35.20;;;-145.59;100.00;63944.34;5116087;28;20043;-71
2021/06/13 09:14:11;;;;;;;3.72;1.92;;;45.00;34.60;;;-145.59;100.00;63944.34;5097722;28;20489;-72
2021/06/13 09:16:43;;;;;;;2.95;1.27;;;45.00;35.10;;;-145.59;100.00;63944.34;5098444;28;20031;-72
2021/06/13 09:19:11;;;;;;;1.90;1.30;;;45.50;34.90;;;-145.59;100.00;63944.34;5098385;28;20028;-72
2021/06/13 09:21:39;;;;;;;6.68;1.73;;;46.00;34.80;;;-145.59;100.00;63944.34;5080828;28;20031;-72
2021/06/13 09:24:26;;;;;;;4.88;1.42;;;46.40;34.30;;;-145.59;100.00;63944.34;5097775;28;20032;-77
2021/06/13 09:26:55;;;;;;;4.75;1.48;;;46.30;34.00;;;-145.59;100.00;63944.34;5115448;28;20036;-73
2021/06/13 09:29:22;;;;;;;2.92;1.85;;;45.90;33.80;;;-145.59;100.00;63944.34;5115998;28;20120;-70
2021/06/13 09:32:03;;;;;;;4.47;1.73;;;45.50;34.40;;;-145.59;100.00;63944.34;5063908;28;20107;-71
2021/06/13 09:34:29;;;;;;;3.67;1.48;;;45.10;35.00;;;-145.59;100.00;63944.34;5115363;28;20034;-71
2021/06/13 09:37:05;;;;;;;2.88;1.63;;;45.10;34.90;;;-145.59;100.00;63944.34;5080383;28;20032;-74
2021/06/13 09:39:32;;;;;;;6.13;1.50;;;45.40;35.00;;;-145.59;100.00;63944.34;5096843;28;20064;-75
2021/06/13 09:42:10;;;;;;;2.97;1.42;;;45.60;34.50;;;-145.59;100.00;63944.34;5096960;28;20038;-72
2021/06/13 09:44:36;;;;;;;4.07;1.20;;;45.30;34.20;;;-145.59;100.00;63944.34;5115563;28;20039;-71
2021/06/13 09:47:04;;;;;;;4.18;1.70;;;45.10;34.40;;;-145.59;100.00;63944.34;5097023;28;20063;-75
2021/06/13 09:49:46;;;;;;;2.75;1.80;;;44.90;34.40;;;-145.59;100.00;63944.34;5063345;28;20039;-74
2021/06/13 09:52:12;;;;;;;4.13;1.20;;;44.90;34.70;;;-145.59;100.00;63944.34;5079430;28;20477;-74
2021/06/13 09:54:38;;;;;;;3.28;1.60;;;44.80;34.70;;;-145.59;100.00;63944.34;5096972;28;20055;-74
2021/06/13 09:57:06;;;;;;;3.03;1.40;;;44.50;34.70;;;-145.59;100.00;63944.34;5079726;28;20032;-72
2021/06/13 09:59:33;;;;;;;2.38;1.33;;;44.60;34.80;;;-145.59;100.00;63944.34;5096871;28;20126;-72
2021/06/13 10:02:02;;;;;;;2.47;1.20;;;44.80;34.80;;;-145.59;100.00;63944.34;5096729;28;20517;-71
2021/06/13 10:04:37;;;;;;;3.05;1.52;;;45.00;34.50;;;-145.59;100.00;63944.34;5096664;28;20393;-75
2021/06/13 10:07:18;;;;;;;3.75;1.30;;;44.70;34.40;;;-145.59;100.00;63944.34;5096986;28;20032;-74